createdAt,value
2023-01-21T00:01:06.031Z,2.20
2023-01-21T00:03:35.940Z,2.30
2023-01-21T00:06:03.079Z,2.40
2023-01-21T00:08:29.881Z,2.30
2023-01-21T00:10:56.663Z,2.40
2023-01-21T00:13:23.501Z,2.40
2023-01-21T00:15:50.347Z,2.30
2023-01-21T00:18:19.365Z,2.40
2023-01-21T00:20:46.417Z,2.40
2023-01-21T00:23:15.420Z,2.40
2023-01-21T00:25:42.185Z,2.30
2023-01-21T00:28:08.963Z,2.30
2023-01-21T00:30:36.905Z,2.30
2023-01-21T00:33:04.303Z,2.30
2023-01-21T00:35:31.135Z,2.30
2023-01-21T00:38:00.851Z,2.20
2023-01-21T00:40:27.599Z,2.30
2023-01-21T00:42:54.356Z,2.30
2023-01-21T00:45:21.150Z,2.30
2023-01-21T00:47:47.934Z,2.30
2023-01-21T00:50:14.937Z,2.30
2023-01-21T00:52:42.021Z,2.30
2023-01-21T00:55:09.107Z,2.30
2023-01-21T00:57:35.912Z,2.30
2023-01-21T01:00:05.431Z,2.30
2023-01-21T01:02:34.368Z,2.30
2023-01-21T01:05:01.125Z,2.30
2023-01-21T01:07:30.132Z,2.30
2023-01-21T01:09:56.917Z,2.30
2023-01-21T01:12:25.908Z,2.40
2023-01-21T01:14:52.682Z,2.40
2023-01-21T01:17:19.451Z,2.30
2023-01-21T01:19:46.327Z,2.30
2023-01-21T01:22:13.191Z,2.30
2023-01-21T01:24:39.990Z,2.30
2023-01-21T01:27:06.746Z,2.40
2023-01-21T01:29:33.507Z,2.30
2023-01-21T01:32:00.288Z,2.30
2023-01-21T01:34:29.165Z,2.20
2023-01-21T01:36:58.396Z,2.20
2023-01-21T01:39:25.253Z,2.20
2023-01-21T01:41:52.056Z,2.10
2023-01-21T01:44:56.213Z,2.10
2023-01-21T01:47:36.098Z,2.00
2023-01-21T01:50:05.463Z,2.00
2023-01-21T01:52:32.257Z,1.90
2023-01-21T01:55:00.428Z,1.70
2023-01-21T01:57:34.323Z,1.70
2023-01-21T02:00:02.769Z,1.70
2023-01-21T02:02:29.657Z,1.70
2023-01-21T02:05:02.489Z,1.70
2023-01-21T02:07:30.213Z,1.60
2023-01-21T02:09:56.986Z,1.60
2023-01-21T02:12:23.787Z,1.60
2023-01-21T02:14:50.589Z,1.50
2023-01-21T02:17:36.139Z,1.60
2023-01-21T02:20:46.804Z,1.60
2023-01-21T02:23:26.332Z,1.60
2023-01-21T02:26:02.586Z,1.50
2023-01-21T02:29:02.736Z,1.50
2023-01-21T02:31:52.492Z,1.50
2023-01-21T02:34:32.181Z,1.50
2023-01-21T02:37:06.137Z,1.50
2023-01-21T02:39:46.457Z,1.50
2023-01-21T02:42:25.055Z,1.50
2023-01-21T02:44:57.171Z,1.50
2023-01-21T02:47:28.543Z,1.50
2023-01-21T02:50:03.000Z,1.50
2023-01-21T02:52:32.429Z,1.50
2023-01-21T02:55:03.518Z,1.50
2023-01-21T02:57:45.401Z,1.40
2023-01-21T03:00:26.521Z,1.40
2023-01-21T03:03:03.519Z,1.40
2023-01-21T03:05:30.330Z,1.30
2023-01-21T03:08:02.705Z,1.30
2023-01-21T03:10:43.061Z,1.30
2023-01-21T03:13:39.584Z,1.30
2023-01-21T03:16:27.609Z,1.40
2023-01-21T03:18:54.493Z,1.30
2023-01-21T03:21:24.284Z,1.30
2023-01-21T03:23:53.581Z,1.20
2023-01-21T03:26:41.749Z,1.20
2023-01-21T03:29:15.138Z,1.20
2023-01-21T03:31:45.417Z,1.20
2023-01-21T03:34:13.045Z,1.20
2023-01-21T03:36:45.681Z,1.20
2023-01-21T03:39:22.530Z,1.20
2023-01-21T03:41:49.395Z,1.30
2023-01-21T03:44:16.158Z,1.20
2023-01-21T03:47:03.983Z,1.20
2023-01-21T03:49:52.203Z,1.20
2023-01-21T03:52:21.865Z,1.20
2023-01-21T03:54:49.193Z,1.20
2023-01-21T03:57:16.098Z,1.20
2023-01-21T03:59:43.042Z,1.20
2023-01-21T04:02:10.381Z,1.20
2023-01-21T04:04:37.220Z,1.20
2023-01-21T04:07:06.460Z,1.20
2023-01-21T04:09:35.504Z,1.20
2023-01-21T04:12:02.353Z,1.20
2023-01-21T04:14:29.246Z,1.30
2023-01-21T04:16:56.372Z,1.30
2023-01-21T04:19:23.324Z,1.20
2023-01-21T04:21:52.365Z,1.20
2023-01-21T04:24:19.155Z,1.30
2023-01-21T04:26:45.968Z,1.30
2023-01-21T04:29:12.724Z,1.30
2023-01-21T04:31:39.609Z,1.30
2023-01-21T04:34:06.459Z,1.30
2023-01-21T04:36:33.279Z,1.20
2023-01-21T04:39:03.129Z,1.20
2023-01-21T04:41:29.976Z,1.20
2023-01-21T04:43:59.292Z,1.10
2023-01-21T04:46:26.073Z,1.20
2023-01-21T04:48:57.591Z,1.30
2023-01-21T04:51:24.414Z,1.20
2023-01-21T04:53:51.190Z,1.20
2023-01-21T04:56:22.636Z,1.20
2023-01-21T04:58:49.411Z,1.20
2023-01-21T05:01:16.264Z,1.30
2023-01-21T05:03:43.072Z,1.30
2023-01-21T05:06:09.843Z,1.20
2023-01-21T05:08:39.152Z,1.10
2023-01-21T05:11:08.503Z,1.10
2023-01-21T05:13:35.325Z,1.20
2023-01-21T05:16:10.034Z,1.20
2023-01-21T05:18:40.851Z,1.20
2023-01-21T05:21:07.818Z,1.10
2023-01-21T05:23:37.145Z,1.20
2023-01-21T05:26:06.303Z,1.30
2023-01-21T05:28:35.623Z,1.20
2023-01-21T05:31:03.292Z,1.20
2023-01-21T05:33:33.733Z,1.20
2023-01-21T05:36:03.369Z,1.20
2023-01-21T05:38:30.209Z,1.30
2023-01-21T05:41:05.446Z,1.30
2023-01-21T05:43:32.255Z,1.20
2023-01-21T05:46:01.268Z,1.30
2023-01-21T05:48:29.557Z,1.30
2023-01-21T05:50:58.249Z,1.30
2023-01-21T05:53:27.753Z,1.30
2023-01-21T05:55:59.575Z,1.50
2023-01-21T05:58:29.480Z,1.30
2023-01-21T06:00:59.126Z,1.30
2023-01-21T06:03:26.082Z,1.20
2023-01-21T06:05:52.958Z,1.30
2023-01-21T06:08:21.999Z,1.30
2023-01-21T06:10:48.789Z,1.30
2023-01-21T06:13:15.895Z,1.30
2023-01-21T06:15:42.848Z,1.30
2023-01-21T06:18:09.665Z,1.50
2023-01-21T06:20:36.539Z,1.30
2023-01-21T06:23:08.754Z,1.30
2023-01-21T06:25:35.564Z,1.20
2023-01-21T06:28:07.124Z,1.30
2023-01-21T06:30:33.874Z,1.30
2023-01-21T06:33:00.652Z,1.30
2023-01-21T06:35:29.928Z,1.30
2023-01-21T06:37:56.677Z,1.40
2023-01-21T06:40:26.373Z,1.30
2023-01-21T06:42:54.289Z,1.30
2023-01-21T06:45:21.095Z,1.30
2023-01-21T06:47:47.950Z,1.40
2023-01-21T06:50:19.366Z,1.30
2023-01-21T06:52:47.288Z,1.30
2023-01-21T06:55:14.383Z,1.40
2023-01-21T06:57:41.209Z,1.40
2023-01-21T07:00:09.600Z,1.40
2023-01-21T07:02:36.414Z,1.40
2023-01-21T07:05:03.926Z,1.40
2023-01-21T07:07:30.714Z,1.30
2023-01-21T07:09:57.502Z,1.30
2023-01-21T07:12:26.861Z,1.30
2023-01-21T07:14:53.663Z,1.30
2023-01-21T07:17:23.233Z,1.30
2023-01-21T07:19:50.068Z,1.20
2023-01-21T07:22:16.838Z,1.30
2023-01-21T07:24:43.646Z,1.30
2023-01-21T07:27:10.823Z,1.30
2023-01-21T07:29:40.044Z,1.30
2023-01-21T07:32:09.277Z,1.30
2023-01-21T07:34:38.198Z,1.30
2023-01-21T07:37:07.423Z,1.30
2023-01-21T07:39:34.244Z,1.30
2023-01-21T07:42:03.277Z,1.20
2023-01-21T07:44:30.058Z,1.30
2023-01-21T07:46:57.018Z,1.30
2023-01-21T07:49:25.908Z,1.30
2023-01-21T07:51:56.436Z,1.30
2023-01-21T07:54:23.226Z,1.40
2023-01-21T07:56:50.019Z,1.30
2023-01-21T07:59:17.168Z,1.30
2023-01-21T08:01:44.064Z,1.30
2023-01-21T08:04:10.936Z,1.30
2023-01-21T08:06:42.414Z,1.30
2023-01-21T08:09:09.844Z,1.30
2023-01-21T08:11:36.663Z,1.40
2023-01-21T08:14:03.366Z,1.30
2023-01-21T08:16:30.171Z,1.50
2023-01-21T08:18:56.932Z,1.40
2023-01-21T08:21:26.028Z,1.30
2023-01-21T08:23:52.830Z,1.30
2023-01-21T08:26:19.632Z,1.40
2023-01-21T08:28:46.445Z,1.40
2023-01-21T08:31:13.600Z,1.50
2023-01-21T08:33:40.519Z,1.50
2023-01-21T08:36:08.274Z,1.50
2023-01-21T08:38:35.037Z,1.60
2023-01-21T08:41:03.937Z,1.50
2023-01-21T08:43:30.709Z,1.50
2023-01-21T08:45:58.628Z,1.50
2023-01-21T08:48:25.544Z,1.60
2023-01-21T08:50:52.480Z,1.50
2023-01-21T08:53:19.428Z,1.50
2023-01-21T08:55:46.203Z,1.50
2023-01-21T08:58:13.033Z,1.60
2023-01-21T09:00:41.696Z,1.40
2023-01-21T09:03:08.796Z,1.50
2023-01-21T09:05:35.556Z,1.40
2023-01-21T09:08:02.413Z,1.50
2023-01-21T09:10:47.572Z,1.60
2023-01-21T09:13:16.385Z,1.60
2023-01-21T09:15:43.578Z,1.60
2023-01-21T09:18:12.634Z,1.70
2023-01-21T09:20:39.799Z,1.60
2023-01-21T09:23:24.279Z,1.60
2023-01-21T09:26:05.232Z,1.60
2023-01-21T09:28:36.777Z,1.60
2023-01-21T09:31:05.921Z,1.70
2023-01-21T09:33:36.047Z,1.60
2023-01-21T09:36:06.471Z,1.60
2023-01-21T09:38:34.562Z,1.70
2023-01-21T09:41:17.760Z,1.70
2023-01-21T09:43:49.693Z,1.70
2023-01-21T09:46:20.759Z,1.60
2023-01-21T09:48:47.925Z,1.60
2023-01-21T09:51:22.568Z,1.60
2023-01-21T09:53:51.218Z,1.70
2023-01-21T09:56:31.641Z,1.70
2023-01-21T09:59:04.019Z,1.70
2023-01-21T10:01:36.964Z,1.70
2023-01-21T10:04:25.688Z,1.70
2023-01-21T10:06:57.470Z,1.70
2023-01-21T10:09:39.397Z,1.70
2023-01-21T10:12:21.784Z,1.60
2023-01-21T10:15:08.248Z,1.70
2023-01-21T10:17:47.653Z,1.70
2023-01-21T10:20:26.958Z,1.80
2023-01-21T10:23:02.613Z,1.70
2023-01-21T10:25:34.994Z,1.70
2023-01-21T10:28:05.049Z,1.70
2023-01-21T10:30:44.631Z,1.70
2023-01-21T10:33:24.487Z,1.80
2023-01-21T10:36:23.125Z,1.90
2023-01-21T10:39:22.205Z,1.90
2023-01-21T10:42:14.380Z,1.90
2023-01-21T10:45:01.842Z,1.80
2023-01-21T10:47:37.531Z,1.80
2023-01-21T10:50:30.641Z,1.90
2023-01-21T10:53:23.623Z,1.90
2023-01-21T10:56:12.704Z,2.00
2023-01-21T10:58:42.380Z,2.00
2023-01-21T11:01:18.586Z,2.10
2023-01-21T11:03:53.548Z,2.00
2023-01-21T11:06:21.410Z,2.10
2023-01-21T11:08:54.720Z,2.10
2023-01-21T11:11:27.118Z,2.10
2023-01-21T11:13:54.800Z,2.10
2023-01-21T11:16:43.141Z,2.10
2023-01-21T11:19:12.782Z,2.00
2023-01-21T11:21:41.713Z,2.10
2023-01-21T11:24:23.611Z,2.10
2023-01-21T11:26:52.069Z,2.10
2023-01-21T11:29:20.097Z,2.10
2023-01-21T11:31:48.923Z,2.10
2023-01-21T11:34:20.246Z,2.20
2023-01-21T11:37:06.413Z,2.20
2023-01-21T11:39:40.588Z,2.30
2023-01-21T11:42:17.780Z,2.30
2023-01-21T11:45:07.215Z,2.30
2023-01-21T11:47:40.448Z,2.30
2023-01-21T11:50:34.820Z,2.30
2023-01-21T11:53:08.066Z,2.30
2023-01-21T11:55:38.139Z,2.30
2023-01-21T11:58:04.892Z,2.30
2023-01-21T12:00:31.774Z,2.40
2023-01-21T12:03:00.184Z,2.40
2023-01-21T12:05:33.677Z,2.50
2023-01-21T12:08:06.181Z,2.40
2023-01-21T12:10:34.545Z,2.40
2023-01-21T12:13:04.298Z,2.50
2023-01-21T12:16:03.619Z,2.50
2023-01-21T12:19:03.509Z,2.50
2023-01-21T12:21:49.653Z,2.50
2023-01-21T12:24:34.612Z,2.50
2023-01-21T12:27:24.330Z,2.50
2023-01-21T12:30:03.347Z,2.50
2023-01-21T12:32:33.829Z,2.60
2023-01-21T12:35:12.735Z,2.60
2023-01-21T12:37:49.942Z,2.60
2023-01-21T12:40:32.760Z,2.60
2023-01-21T12:43:15.526Z,2.60
2023-01-21T12:46:06.185Z,2.50
2023-01-21T12:48:38.643Z,2.60
2023-01-21T12:51:08.670Z,2.60
2023-01-21T12:53:52.312Z,2.60
2023-01-21T12:56:41.119Z,2.60
2023-01-21T12:59:10.061Z,2.60
2023-01-21T13:01:53.630Z,2.60
2023-01-21T13:04:44.439Z,2.60
2023-01-21T13:07:15.331Z,2.60
2023-01-21T13:10:23.898Z,2.60
2023-01-21T13:13:00.133Z,2.60
2023-01-21T13:15:34.281Z,2.60
2023-01-21T13:18:10.878Z,2.60
2023-01-21T13:20:41.872Z,2.60
2023-01-21T13:23:14.882Z,2.60
2023-01-21T13:25:53.678Z,2.60
2023-01-21T13:28:31.948Z,2.60
2023-01-21T13:31:01.641Z,2.60
2023-01-21T13:33:50.050Z,2.70
2023-01-21T13:36:52.343Z,2.70
2023-01-21T13:39:40.444Z,2.70
2023-01-21T13:42:19.776Z,2.70
2023-01-21T13:45:14.033Z,2.70
2023-01-21T13:48:09.946Z,2.80
2023-01-21T13:50:58.053Z,2.80
2023-01-21T13:53:35.326Z,2.80
2023-01-21T13:56:40.709Z,2.80
2023-01-21T13:59:42.410Z,2.80
2023-01-21T14:02:21.268Z,2.80
2023-01-21T14:05:12.174Z,2.80
2023-01-21T14:07:50.281Z,2.80
2023-01-21T14:10:47.875Z,2.80
2023-01-21T14:13:50.781Z,2.80
2023-01-21T14:16:17.565Z,2.80
2023-01-21T14:18:47.166Z,2.80
2023-01-21T14:21:24.622Z,2.90
2023-01-21T14:23:57.451Z,2.80
2023-01-21T14:26:38.599Z,2.90
2023-01-21T14:29:26.886Z,2.90
2023-01-21T14:32:01.951Z,2.90
2023-01-21T14:34:38.500Z,2.90
2023-01-21T14:37:37.090Z,2.90
2023-01-21T14:40:19.941Z,3.00
2023-01-21T14:42:50.796Z,2.90
2023-01-21T14:45:22.174Z,2.90
2023-01-21T14:47:54.342Z,2.90
2023-01-21T14:50:43.115Z,3.00
2023-01-21T14:53:15.476Z,3.00
2023-01-21T14:55:42.237Z,3.00
2023-01-21T14:58:22.387Z,3.00
2023-01-21T15:00:51.489Z,3.00
2023-01-21T15:03:27.589Z,3.00
2023-01-21T15:06:02.358Z,3.00
2023-01-21T15:08:45.605Z,3.00
2023-01-21T15:11:33.108Z,3.00
2023-01-21T15:14:07.343Z,3.00
2023-01-21T15:16:36.315Z,3.00
2023-01-21T15:19:12.639Z,3.00
2023-01-21T15:21:42.905Z,3.00
2023-01-21T15:24:35.644Z,3.00
2023-01-21T15:27:23.774Z,3.10
2023-01-21T15:29:53.660Z,3.10
2023-01-21T15:32:48.790Z,3.10
2023-01-21T15:35:22.479Z,3.10
2023-01-21T15:38:01.370Z,3.10
2023-01-21T15:40:34.677Z,3.10
2023-01-21T15:43:11.499Z,3.10
2023-01-21T15:45:53.652Z,3.10
2023-01-21T15:48:41.617Z,3.10
2023-01-21T15:51:26.757Z,3.10
2023-01-21T15:54:18.788Z,3.10
2023-01-21T15:56:51.115Z,3.10
2023-01-21T15:59:44.273Z,3.10
2023-01-21T16:02:24.726Z,3.20
2023-01-21T16:05:08.712Z,3.10
2023-01-21T16:07:46.511Z,3.10
2023-01-21T16:10:28.389Z,3.20
2023-01-21T16:13:32.130Z,3.20
2023-01-21T16:16:08.881Z,3.20
2023-01-21T16:18:54.547Z,3.20
2023-01-21T16:21:31.384Z,3.20
2023-01-21T16:24:01.665Z,3.20
2023-01-21T16:26:32.867Z,3.20
2023-01-21T16:28:59.954Z,3.20
2023-01-21T16:31:27.018Z,3.20
2023-01-21T16:33:56.423Z,3.20
2023-01-21T16:36:23.205Z,3.20
2023-01-21T16:38:50.050Z,3.30
2023-01-21T16:41:25.867Z,3.20
2023-01-21T16:44:03.785Z,3.20
2023-01-21T16:46:37.557Z,3.20
2023-01-21T16:49:07.138Z,3.30
2023-01-21T16:51:40.100Z,3.30
2023-01-21T16:54:19.094Z,3.30
2023-01-21T16:56:51.319Z,3.30
2023-01-21T16:59:22.797Z,3.30
2023-01-21T17:01:49.700Z,3.30
2023-01-21T17:04:19.126Z,3.30
2023-01-21T17:06:48.352Z,3.40
2023-01-21T17:09:41.448Z,3.40
2023-01-21T17:12:11.807Z,3.40
2023-01-21T17:14:38.615Z,3.40
2023-01-21T17:17:07.099Z,3.30
2023-01-21T17:19:35.536Z,3.40
2023-01-21T17:22:04.512Z,3.40
2023-01-21T17:24:37.811Z,3.40
2023-01-21T17:27:20.155Z,3.40
2023-01-21T17:29:50.056Z,3.40
2023-01-21T17:32:33.356Z,3.40
2023-01-21T17:35:17.513Z,3.40
2023-01-21T17:37:53.322Z,3.40
2023-01-21T17:40:27.905Z,3.40
2023-01-21T17:42:54.916Z,3.40
2023-01-21T17:45:29.460Z,3.40
2023-01-21T17:48:14.887Z,3.40
2023-01-21T17:50:45.267Z,3.40
2023-01-21T17:53:22.321Z,3.40
2023-01-21T17:56:05.753Z,3.40
2023-01-21T17:58:32.528Z,3.50
2023-01-21T18:01:03.153Z,3.40
2023-01-21T18:03:30.008Z,3.50
2023-01-21T18:05:58.969Z,3.40
2023-01-21T18:08:25.803Z,3.50
2023-01-21T18:10:54.809Z,3.50
2023-01-21T18:13:24.232Z,3.50
2023-01-21T18:15:54.283Z,3.50
2023-01-21T18:18:27.562Z,3.50
2023-01-21T18:20:54.673Z,3.60
2023-01-21T18:23:21.502Z,3.60
2023-01-21T18:25:51.314Z,3.60
2023-01-21T18:28:28.599Z,3.60
2023-01-21T18:30:59.592Z,3.60
2023-01-21T18:33:29.505Z,3.50
2023-01-21T18:35:56.319Z,3.60
2023-01-21T18:38:27.654Z,3.50
2023-01-21T18:41:01.372Z,3.50
2023-01-21T18:43:28.185Z,3.50
2023-01-21T18:45:54.999Z,3.50
2023-01-21T18:48:29.936Z,3.60
2023-01-21T18:50:56.794Z,3.60
2023-01-21T18:53:23.655Z,3.60
2023-01-21T18:55:53.924Z,3.60
2023-01-21T18:58:22.886Z,3.60
2023-01-21T19:00:51.879Z,3.60
2023-01-21T19:03:18.919Z,3.60
2023-01-21T19:05:49.284Z,3.60
2023-01-21T19:08:27.643Z,3.60
2023-01-21T19:10:55.066Z,3.60
2023-01-21T19:13:47.605Z,3.60
2023-01-21T19:16:19.914Z,3.60
2023-01-21T19:18:46.864Z,3.60
2023-01-21T19:21:13.777Z,3.60
2023-01-21T19:23:40.650Z,3.60
2023-01-21T19:26:07.463Z,3.60
2023-01-21T19:28:36.749Z,3.60
2023-01-21T19:31:03.756Z,3.60
2023-01-21T19:33:30.567Z,3.60
2023-01-21T19:36:05.260Z,3.60
2023-01-21T19:38:32.041Z,3.60
2023-01-21T19:40:58.896Z,3.60
2023-01-21T19:43:28.493Z,3.60
2023-01-21T19:45:55.887Z,3.60
2023-01-21T19:48:22.688Z,3.60
2023-01-21T19:50:51.610Z,3.60
2023-01-21T19:53:23.719Z,3.60
2023-01-21T19:55:53.076Z,3.60
2023-01-21T19:58:24.073Z,3.60
2023-01-21T20:00:51.718Z,3.60
2023-01-21T20:03:21.165Z,3.60
2023-01-21T20:05:55.246Z,3.60
2023-01-21T20:08:23.582Z,3.60
2023-01-21T20:10:53.171Z,3.70
2023-01-21T20:13:20.154Z,3.60
2023-01-21T20:15:47.819Z,3.70
2023-01-21T20:18:18.124Z,3.70
2023-01-21T20:20:48.038Z,3.70
2023-01-21T20:23:17.750Z,3.70
2023-01-21T20:25:45.419Z,3.70
2023-01-21T20:28:22.106Z,3.60
2023-01-21T20:30:49.544Z,3.60
2023-01-21T20:33:18.220Z,3.60
2023-01-21T20:35:47.727Z,3.60
2023-01-21T20:38:15.397Z,3.60
2023-01-21T20:40:42.283Z,3.70
2023-01-21T20:43:10.002Z,3.70
2023-01-21T20:45:45.039Z,3.70
2023-01-21T20:48:18.470Z,3.60
2023-01-21T20:50:45.317Z,3.60
2023-01-21T20:53:12.217Z,3.60
2023-01-21T20:55:39.932Z,3.60
2023-01-21T20:58:07.103Z,3.70
2023-01-21T21:00:34.738Z,3.70
2023-01-21T21:03:01.952Z,3.70
2023-01-21T21:05:28.898Z,3.70
2023-01-21T21:07:55.816Z,3.70
2023-01-21T21:10:22.635Z,3.70
2023-01-21T21:12:49.742Z,3.70
2023-01-21T21:15:17.127Z,3.70
2023-01-21T21:17:49.245Z,3.70
2023-01-21T21:20:23.049Z,3.70
2023-01-21T21:22:52.365Z,3.70
2023-01-21T21:25:21.185Z,3.70
2023-01-21T21:27:50.249Z,3.70
2023-01-21T21:30:19.308Z,3.70
2023-01-21T21:32:46.223Z,3.70
2023-01-21T21:35:22.128Z,3.70
2023-01-21T21:37:49.119Z,3.70
2023-01-21T21:40:16.013Z,3.70
2023-01-21T21:43:01.348Z,3.70
2023-01-21T21:45:28.134Z,3.70
2023-01-21T21:48:15.800Z,3.80
2023-01-21T21:50:42.677Z,3.70
2023-01-21T21:53:09.524Z,3.70
2023-01-21T21:55:37.481Z,3.70
2023-01-21T21:58:05.884Z,3.60
2023-01-21T22:00:32.675Z,3.60
2023-01-21T22:03:00.014Z,3.60
2023-01-21T22:05:26.947Z,3.60
2023-01-21T22:07:56.307Z,3.60
2023-01-21T22:10:23.084Z,3.60
2023-01-21T22:12:52.153Z,3.60
2023-01-21T22:15:24.083Z,3.60
2023-01-21T22:17:50.902Z,3.60
2023-01-21T22:20:19.914Z,3.60
2023-01-21T22:22:46.706Z,3.60
2023-01-21T22:25:13.544Z,3.60
2023-01-21T22:27:40.327Z,3.60
2023-01-21T22:30:07.807Z,3.50
2023-01-21T22:32:37.121Z,3.60
2023-01-21T22:35:04.076Z,3.60
2023-01-21T22:37:33.059Z,3.60
2023-01-21T22:40:02.358Z,3.60
2023-01-21T22:42:31.356Z,3.60
2023-01-21T22:45:00.376Z,3.60
2023-01-21T22:47:31.964Z,3.60
2023-01-21T22:50:00.843Z,3.60
2023-01-21T22:52:28.674Z,3.70
2023-01-21T22:54:57.574Z,3.70
2023-01-21T22:57:24.350Z,3.60
2023-01-21T22:59:53.336Z,3.60
2023-01-21T23:02:22.184Z,3.70
2023-01-21T23:04:51.088Z,3.70
2023-01-21T23:07:17.879Z,3.70
2023-01-21T23:09:46.869Z,3.60
2023-01-21T23:12:18.720Z,3.70
2023-01-21T23:14:46.270Z,3.60
2023-01-21T23:17:13.905Z,3.60
2023-01-21T23:19:40.748Z,3.60
2023-01-21T23:22:08.572Z,3.60
2023-01-21T23:24:37.561Z,3.60
2023-01-21T23:27:04.399Z,3.60
2023-01-21T23:29:31.239Z,3.60
2023-01-21T23:32:00.807Z,3.60
2023-01-21T23:34:27.720Z,3.60
2023-01-21T23:36:54.473Z,3.60
2023-01-21T23:39:21.257Z,3.60
2023-01-21T23:41:48.034Z,3.70
2023-01-21T23:44:14.814Z,3.60
2023-01-21T23:46:43.187Z,3.60
2023-01-21T23:49:10.004Z,3.70
2023-01-21T23:51:36.836Z,3.60
2023-01-21T23:54:03.747Z,3.60
2023-01-21T23:56:30.542Z,3.70
2023-01-21T23:58:57.333Z,3.60
